EST,Max TemperatureF,Mean TemperatureF,Min TemperatureF,Max Dew PointF,MeanDew PointF,Min DewpointF,Max Humidity, Mean Humidity, Min Humidity, Max Sea Level PressureIn, Mean Sea Level PressureIn, Min Sea Level PressureIn, Max VisibilityMiles, Mean VisibilityMiles, Min VisibilityMiles, Max Wind SpeedMPH, Mean Wind SpeedMPH, Max Gust SpeedMPH,PrecipitationIn, CloudCover, Events, WindDirDegrees
2011-12-1,53,40,28,28,26,21,86,55,33,30.34,30.27,30.13,10,10,10,8,1,16,0.00,0,,36
2011-12-2,62,43,24,36,28,21,93,61,26,30.43,30.38,30.35,10,10,10,7,1,,0.00,0,,256
2011-12-3,57,44,30,37,32,25,87,63,41,30.60,30.54,30.47,10,10,10,10,2,16,0.00,0,,72
2011-12-4,62,46,30,43,37,27,93,72,45,30.53,30.46,30.37,10,10,4,7,1,,0.00,2,,95
2011-12-5,68,56,44,57,50,39,87,79,64,30.36,30.26,30.18,10,10,10,7,1,,0.00,7,,151
2011-12-6,71,65,59,61,57,55,94,80,64,30.18,30.12,30.04,10,9,1,13,5,16,0.00,6,,194
2011-12-7,69,58,46,61,56,36,94,81,66,30.00,29.80,29.55,10,10,7,20,12,36,0.32,8,,226
2011-12-8,48,39,30,30,24,19,86,55,32,30.33,30.23,29.98,10,10,7,8,3,,0.00,0,,358
2011-12-9,57,42,26,43,32,21,93,75,54,30.32,30.27,30.20,10,10,10,5,0,,0.00,2,,80
2011-12-10,51,43,35,37,30,25,87,63,38,30.45,30.32,30.22,10,10,5,10,2,16,0.00,0,,27
2011-12-11,46,36,26,25,21,18,75,56,34,30.62,30.53,30.47,10,10,10,14,3,20,0.00,0,,57
2011-12-12,48,40,33,34,28,21,81,65,56,30.56,30.49,30.43,10,10,10,8,4,,0.00,3,,30
2011-12-13,64,47,30,46,35,27,93,72,52,30.47,30.41,30.35,10,10,10,7,0,,0.00,0,,316
2011-12-14,60,48,37,39,37,34,93,68,41,30.43,30.36,30.31,10,9,2,7,1,,0.00,3,,141
2011-12-15,68,54,41,54,46,34,87,71,56,30.30,30.21,30.10,10,10,10,14,7,26,0.00,1,,224
2011-12-16,69,58,46,55,51,37,88,76,60,30.18,30.13,30.09,10,10,10,14,8,17,0.00,4,,285
2011-12-17,48,40,32,39,36,28,93,79,58,30.24,30.18,30.13,10,10,3,10,3,20,0.04,6,,31
2011-12-18,48,36,24,30,25,21,93,68,34,30.36,30.30,30.21,10,10,5,8,1,,0.00,1,,12
2011-12-19,57,40,24,30,25,19,86,57,29,30.37,30.30,30.23,10,10,10,17,4,21,0.00,0,,220
2011-12-20,64,52,41,52,46,34,93,77,64,30.24,30.19,30.16,10,10,9,13,4,18,0.00,4,,232
2011-12-21,66,60,53,61,55,50,94,84,77,30.16,30.06,29.98,10,10,10,20,8,28,0.06,7,,213
2011-12-22,68,62,57,63,58,55,94,84,73,30.13,30.05,29.96,10,10,9,18,8,23,0.00,5,,214
2011-12-23,66,57,48,57,47,36,77,62,48,30.25,30.07,29.89,10,10,10,21,10,31,0.00,4,,316
2011-12-24,51,42,32,36,31,28,87,66,43,30.45,30.37,30.26,10,10,10,10,1,,0.00,1,,39
2011-12-25,53,42,30,39,34,27,93,73,51,30.41,30.31,30.17,10,10,8,12,2,,0.00,3,,236
2011-12-26,53,43,33,39,29,25,93,61,33,30.38,30.28,30.18,10,10,5,12,4,16,0.00,0,,355
2011-12-27,62,50,37,59,40,28,94,72,52,30.25,29.84,29.57,10,10,5,21,7,34,0.52,5,,194
2011-12-28,51,44,37,36,28,25,76,56,37,30.07,29.94,29.74,10,10,10,10,7,20,0.00,0,,270
2011-12-29,55,39,23,30,25,19,93,60,33,30.11,30.05,30.00,10,10,10,13,4,18,0.00,0,,201
2011-12-30,62,48,35,43,37,28,81,61,45,30.11,30.03,29.99,10,10,10,17,7,24,0.00,2,,218
2011-12-31,64,50,37,48,40,32,87,62,34,30.15,30.02,29.92,10,10,10,15,9,21,0.00,1,,255